Findlay Airport Findlay US
ICAO: KFDY
IATA: FDY
Category: Medium
Scheduled Services: No

Elevation: 813 ft
TransAlt. 18000 ft.

Airport Communications:
TOLEDO APP/DEP:120.8
ASOS:124.425
CLEVELAND RDO:122.2
CTAF/UNICOM:122.725

KFDY Zoom In..

Runways:

(A) RW 07 length 5883 ft width 100 ft
---- / hdg 74

(B) RW 18 length 6498 ft width 100 ft
---- / hdg 185

(C) RW 25 length 5883 ft width 100 ft
---- / hdg 254

(D) RW 36 length 6498 ft width 100 ft
---- / hdg 5

Location; KFDY
Day. 21 / Time. 23.53 Zulu
* Altimeter: 30.37
* Temperature: 11° c. 51.8°f.
* Wind from: 050° Speed 09 kn.
Dewpoint: -08° c.
Visibility: 10 Statute Miles.
Clouds: Broken 9000 ft.

KFDY 212353Z AUTO 05009KT 10SM BKN090 11/M08 A3037 RMK AO2 SLP285 T01111083 10144 20111 58003


Wind From 050°
Speed 09 kn.

  YouTube Music Video
 
jpsmedia.com for Web Design  worldairports.se 2018   terms of use